createdAt,value
2024-01-16T00:02:25.713Z,100197.47
2024-01-16T00:04:51.971Z,100201.75
2024-01-16T00:07:18.209Z,100204.28
2024-01-16T00:09:44.485Z,100204.31
2024-01-16T00:12:10.646Z,100206.91
2024-01-16T00:14:36.972Z,100207.78
2024-01-16T00:17:03.284Z,100201.81
2024-01-16T00:19:29.594Z,100209.53
2024-01-16T00:21:55.805Z,100214.66
2024-01-16T00:24:22.019Z,100222.34
2024-01-16T00:26:48.301Z,100222.34
2024-01-16T00:29:14.631Z,100218.94
2024-01-16T00:31:40.904Z,100228.31
2024-01-16T00:34:07.181Z,100230.00
2024-01-16T00:36:34.631Z,100234.28
2024-01-16T00:39:02.082Z,100240.22
2024-01-16T00:41:28.419Z,100247.00
2024-01-16T00:43:55.297Z,100248.69
2024-01-16T00:46:21.496Z,100255.47
2024-01-16T00:48:47.818Z,100253.75
2024-01-16T00:51:14.105Z,100250.34
2024-01-16T00:53:40.352Z,100252.00
2024-01-16T00:56:06.655Z,100248.63
2024-01-16T00:58:32.879Z,100252.88
2024-01-16T01:00:59.172Z,100259.66
2024-01-16T01:03:25.435Z,100254.53
2024-01-16T01:05:51.721Z,100258.78
2024-01-16T01:08:18.062Z,100260.47
2024-01-16T01:10:44.358Z,100268.94
2024-01-16T01:13:11.346Z,100274.00
2024-01-16T01:15:38.755Z,100268.91
2024-01-16T01:18:07.039Z,100257.03
2024-01-16T01:20:33.353Z,100261.22
2024-01-16T01:22:59.563Z,100261.25
2024-01-16T01:25:25.768Z,100256.16
2024-01-16T01:27:51.983Z,100266.38
2024-01-16T01:30:18.200Z,100259.59
2024-01-16T01:32:44.582Z,100266.38
2024-01-16T01:35:10.889Z,100264.69
2024-01-16T01:37:37.323Z,100272.31
2024-01-16T01:40:03.552Z,100270.59
2024-01-16T01:42:29.745Z,100264.59
2024-01-16T01:44:55.992Z,100274.78
2024-01-16T01:47:22.254Z,100276.47
2024-01-16T01:49:48.519Z,100277.28
2024-01-16T01:52:14.737Z,100276.41
2024-01-16T01:54:40.956Z,100278.94
2024-01-16T01:57:07.211Z,100283.94
2024-01-16T01:59:33.447Z,100281.38
2024-01-16T02:01:59.672Z,100285.59
2024-01-16T02:04:25.943Z,100285.56
2024-01-16T02:06:52.174Z,100284.69
2024-01-16T02:09:18.405Z,100278.72
2024-01-16T02:11:44.725Z,100283.06
2024-01-16T02:14:11.033Z,100282.34
2024-01-16T02:16:37.265Z,100276.47
2024-01-16T02:19:03.429Z,100270.50
2024-01-16T02:21:29.635Z,100276.44
2024-01-16T02:23:55.904Z,100271.38
2024-01-16T02:26:22.353Z,100274.81
2024-01-16T02:28:48.641Z,100263.00
2024-01-16T02:31:14.850Z,100261.38
2024-01-16T02:33:41.205Z,100258.84
2024-01-16T02:36:07.513Z,100265.63
2024-01-16T02:38:33.907Z,100270.72
2024-01-16T02:41:00.165Z,100265.56
2024-01-16T02:43:26.376Z,100274.91
2024-01-16T02:45:52.558Z,100264.69
2024-01-16T02:48:18.877Z,100273.16
2024-01-16T02:50:45.212Z,100271.47
2024-01-16T02:53:11.455Z,100274.84
2024-01-16T02:55:37.702Z,100264.63
2024-01-16T02:58:03.974Z,100262.94
2024-01-16T03:00:30.200Z,100264.63
2024-01-16T03:02:56.468Z,100270.56
2024-01-16T03:05:22.805Z,100268.03
2024-01-16T03:07:49.096Z,100274.81
2024-01-16T03:10:15.343Z,100275.66
2024-01-16T03:12:41.526Z,100274.81
2024-01-16T03:15:07.763Z,100277.38
2024-01-16T03:17:34.058Z,100278.16
2024-01-16T03:20:00.315Z,100285.00
2024-01-16T03:22:26.565Z,100285.91
2024-01-16T03:24:52.788Z,100285.03
2024-01-16T03:27:19.006Z,100277.38
2024-01-16T03:29:45.392Z,100275.69
2024-01-16T03:32:11.755Z,100281.59
2024-01-16T03:34:38.084Z,100285.00
2024-01-16T03:37:04.347Z,100276.50
2024-01-16T03:39:30.504Z,100280.78
2024-01-16T03:41:56.761Z,100278.25
2024-01-16T03:44:23.067Z,100275.69
2024-01-16T03:46:49.348Z,100275.69
2024-01-16T03:49:15.582Z,100282.53
2024-01-16T03:51:41.820Z,100274.94
2024-01-16T03:54:08.044Z,100274.97
2024-01-16T03:56:34.324Z,100280.94
2024-01-16T03:59:00.584Z,100275.00
2024-01-16T04:01:26.844Z,100268.19
2024-01-16T04:03:54.154Z,100267.31
2024-01-16T04:06:20.561Z,100264.75
2024-01-16T04:08:46.987Z,100274.03
2024-01-16T04:11:13.296Z,100279.94
2024-01-16T04:13:39.548Z,100278.19
2024-01-16T04:16:05.779Z,100280.69
2024-01-16T04:18:32.098Z,100277.25
2024-01-16T04:20:58.417Z,100286.50
2024-01-16T04:23:24.660Z,100284.81
2024-01-16T04:25:50.903Z,100291.59
2024-01-16T04:28:17.116Z,100284.78
2024-01-16T04:30:43.403Z,100281.38
2024-01-16T04:33:09.800Z,100279.66
2024-01-16T04:35:36.105Z,100277.16
2024-01-16T04:38:02.383Z,100271.16
2024-01-16T04:40:28.608Z,100266.88
2024-01-16T04:42:54.798Z,100274.66
2024-01-16T04:45:20.987Z,100266.25
2024-01-16T04:47:47.256Z,100262.84
2024-01-16T04:50:13.587Z,100262.84
2024-01-16T04:52:39.811Z,100262.94
2024-01-16T04:55:05.983Z,100258.69
2024-01-16T04:57:32.445Z,100254.47
2024-01-16T04:59:58.755Z,100252.81
2024-01-16T05:02:25.004Z,100257.09
2024-01-16T05:04:51.333Z,100252.00
2024-01-16T05:07:17.607Z,100246.94
2024-01-16T05:09:43.829Z,100251.19
2024-01-16T05:12:11.243Z,100256.28
2024-01-16T05:14:37.441Z,100253.75
2024-01-16T05:17:03.712Z,100241.03
2024-01-16T05:19:30.002Z,100239.34
2024-01-16T05:21:56.270Z,100238.50
2024-01-16T05:24:22.437Z,100235.91
2024-01-16T05:26:50.918Z,100238.50
2024-01-16T05:29:17.221Z,100241.91
2024-01-16T05:31:43.494Z,100247.00
2024-01-16T05:34:09.817Z,100237.59
2024-01-16T05:36:36.039Z,100242.72
2024-01-16T05:39:02.255Z,100232.50
2024-01-16T05:41:28.566Z,100230.81
2024-01-16T05:43:54.769Z,100228.22
2024-01-16T05:46:20.986Z,100224.81
2024-01-16T05:48:47.381Z,100231.63
2024-01-16T05:51:13.696Z,100218.88
2024-01-16T05:53:40.047Z,100223.97
2024-01-16T05:56:06.390Z,100218.84
2024-01-16T05:58:32.697Z,100217.13
2024-01-16T06:00:59.040Z,100221.34
2024-01-16T06:03:25.242Z,100215.34
2024-01-16T06:05:51.607Z,100228.91
2024-01-16T06:08:17.896Z,100228.03
2024-01-16T06:10:44.150Z,100225.47
2024-01-16T06:13:10.411Z,100237.34
2024-01-16T06:15:36.584Z,100237.34
2024-01-16T06:18:03.050Z,100230.50
2024-01-16T06:20:29.394Z,100227.97
2024-01-16T06:22:55.672Z,100226.28
2024-01-16T06:25:21.863Z,100229.72
2024-01-16T06:27:48.059Z,100223.81
2024-01-16T06:30:14.421Z,100224.66
2024-01-16T06:32:40.810Z,100227.19
2024-01-16T06:35:07.289Z,100222.06
2024-01-16T06:37:33.678Z,100223.75
2024-01-16T06:39:59.852Z,100223.72
2024-01-16T06:42:26.056Z,100223.78
2024-01-16T06:44:52.360Z,100222.94
2024-01-16T06:47:18.607Z,100217.84
2024-01-16T06:49:44.879Z,100217.84
2024-01-16T06:52:12.271Z,100222.13
2024-01-16T06:54:38.472Z,100222.94
2024-01-16T06:57:04.716Z,100222.13
2024-01-16T06:59:30.921Z,100208.56
2024-01-16T07:01:57.175Z,100205.16
2024-01-16T07:04:23.573Z,100206.00
2024-01-16T07:06:49.885Z,100210.25
2024-01-16T07:09:16.082Z,100214.53
2024-01-16T07:11:42.391Z,100217.91
2024-01-16T07:14:08.646Z,100224.75
2024-01-16T07:16:34.896Z,100223.91
2024-01-16T07:19:01.212Z,100218.78
2024-01-16T07:21:27.438Z,100216.22
2024-01-16T07:23:53.795Z,100213.66
2024-01-16T07:26:22.842Z,100225.56
2024-01-16T07:28:49.102Z,100216.22
2024-01-16T07:31:15.326Z,100222.19
2024-01-16T07:33:41.700Z,100217.09
2024-01-16T07:36:10.390Z,100220.50
2024-01-16T07:38:36.860Z,100218.81
2024-01-16T07:41:03.140Z,100213.69
2024-01-16T07:43:29.364Z,100220.50
2024-01-16T07:45:55.609Z,100226.47
2024-01-16T07:48:21.945Z,100229.03
2024-01-16T07:50:48.351Z,100225.63
2024-01-16T07:53:14.654Z,100212.03
2024-01-16T07:55:40.901Z,100235.88
2024-01-16T07:58:09.138Z,100237.56
2024-01-16T08:00:35.422Z,100241.84
2024-01-16T08:03:03.788Z,100235.06
2024-01-16T08:05:30.121Z,100246.13
2024-01-16T08:07:56.457Z,100247.00
2024-01-16T08:10:23.003Z,100237.63
2024-01-16T08:12:51.713Z,100239.34
2024-01-16T08:15:21.062Z,100243.59
2024-01-16T08:17:47.398Z,100249.56
2024-01-16T08:20:13.713Z,100249.59
2024-01-16T08:22:40.072Z,100256.44
2024-01-16T08:25:06.276Z,100256.41
2024-01-16T08:27:32.488Z,100263.25
2024-01-16T08:29:58.733Z,100259.84
2024-01-16T08:32:25.015Z,100265.81
2024-01-16T08:34:51.371Z,100271.75
2024-01-16T08:37:17.612Z,100273.47
2024-01-16T08:39:43.803Z,100281.94
2024-01-16T08:42:09.999Z,100280.25
2024-01-16T08:44:36.230Z,100283.66
2024-01-16T08:47:02.435Z,100292.16
2024-01-16T08:49:28.736Z,100295.56
2024-01-16T08:51:56.177Z,100295.53
2024-01-16T08:54:22.414Z,100293.81
2024-01-16T08:59:32.753Z,100303.19
2024-01-16T09:01:58.975Z,100306.63
2024-01-16T09:04:25.309Z,100304.03
2024-01-16T09:06:51.671Z,100309.13
2024-01-16T09:09:18.006Z,100304.00
2024-01-16T09:11:44.320Z,100307.38
2024-01-16T09:14:10.602Z,100307.34
2024-01-16T09:16:36.871Z,100312.44
2024-01-16T09:19:03.176Z,100315.78
2024-01-16T09:21:29.414Z,100323.34
2024-01-16T09:23:55.767Z,100324.97
2024-01-16T09:26:22.131Z,100325.78
2024-01-16T09:28:48.464Z,100334.19
2024-01-16T09:31:14.710Z,100333.19
2024-01-16T09:33:41.022Z,100326.34
2024-01-16T09:36:07.362Z,100314.41
2024-01-16T09:38:33.607Z,100309.34
2024-01-16T09:40:59.879Z,100306.88
2024-01-16T09:43:26.123Z,100304.16
2024-01-16T09:45:52.352Z,100298.22
2024-01-16T09:48:18.761Z,100292.25
2024-01-16T09:50:45.162Z,100301.72
2024-01-16T09:53:11.428Z,100291.34
2024-01-16T09:55:37.743Z,100284.47
2024-01-16T09:58:03.988Z,100283.78
2024-01-16T10:00:30.240Z,100280.41
2024-01-16T10:02:56.572Z,100283.88
2024-01-16T10:05:22.996Z,100289.00
2024-01-16T10:07:49.346Z,100288.97
2024-01-16T10:10:21.690Z,100293.28
2024-01-16T10:12:53.016Z,100297.56
2024-01-16T10:15:19.262Z,100294.09
2024-01-16T10:17:45.658Z,100296.53
2024-01-16T10:20:12.086Z,100303.34
2024-01-16T10:22:38.357Z,100300.78
2024-01-16T10:25:04.562Z,100297.28
2024-01-16T10:27:30.766Z,100291.19
2024-01-16T10:29:57.179Z,100285.28
2024-01-16T10:32:23.596Z,100282.56
2024-01-16T10:34:49.963Z,100275.63
2024-01-16T10:37:16.181Z,100268.78
2024-01-16T10:39:44.164Z,100277.25
2024-01-16T10:42:10.636Z,100266.19
2024-01-16T10:44:36.911Z,100268.47
2024-01-16T10:47:03.086Z,100270.47
2024-01-16T10:49:37.981Z,100266.16
2024-01-16T10:52:09.187Z,100258.22
2024-01-16T10:54:35.510Z,100246.31
2024-01-16T10:57:01.781Z,100240.09
2024-01-16T10:59:28.078Z,100233.06
2024-01-16T11:01:54.334Z,100232.81
2024-01-16T11:04:20.610Z,100225.09
2024-01-16T11:06:46.917Z,100229.47
2024-01-16T11:09:13.184Z,100224.47
2024-01-16T11:11:39.488Z,100222.72
2024-01-16T11:14:05.769Z,100227.13
2024-01-16T11:16:31.992Z,100222.31
2024-01-16T11:19:13.745Z,100221.97
2024-01-16T11:21:44.537Z,100207.97
2024-01-16T11:24:10.772Z,100216.75
2024-01-16T11:26:36.974Z,100215.59
2024-01-16T11:29:03.158Z,100212.47
2024-01-16T11:31:29.325Z,100209.09
2024-01-16T11:33:55.677Z,100205.53
2024-01-16T11:36:21.937Z,100193.16
2024-01-16T11:38:48.207Z,100183.97
2024-01-16T11:41:14.503Z,100190.97
2024-01-16T11:43:40.864Z,100185.00
2024-01-16T11:46:07.092Z,100188.38
2024-01-16T11:48:33.404Z,100184.56
2024-01-16T11:50:59.742Z,100183.59
2024-01-16T11:53:26.019Z,100172.75
2024-01-16T11:55:52.244Z,100171.13
2024-01-16T11:58:18.436Z,100168.47
2024-01-16T12:00:44.665Z,100155.53
2024-01-16T12:03:11.652Z,100156.09
2024-01-16T12:05:38.152Z,100140.44
2024-01-16T12:08:04.401Z,100149.91
2024-01-16T12:10:30.615Z,100139.28
2024-01-16T12:12:56.860Z,100138.66
2024-01-16T12:15:23.054Z,100128.16
2024-01-16T12:17:49.358Z,100124.88
2024-01-16T12:20:15.771Z,100121.50
2024-01-16T12:22:42.031Z,100125.84
2024-01-16T12:25:08.258Z,100116.66
2024-01-16T12:27:34.456Z,100116.91
2024-01-16T12:30:00.667Z,100107.41
2024-01-16T12:32:27.003Z,100110.06
2024-01-16T12:34:53.355Z,100101.66
2024-01-16T12:37:19.712Z,100107.03
2024-01-16T12:39:45.921Z,100106.91
2024-01-16T12:42:12.209Z,100107.56
2024-01-16T12:44:38.494Z,100094.09
2024-01-16T12:47:04.686Z,100085.28
2024-01-16T12:49:31.011Z,100075.56
2024-01-16T12:51:57.263Z,100076.69
2024-01-16T12:54:23.622Z,100071.53
2024-01-16T12:56:49.976Z,100074.13
2024-01-16T12:59:16.335Z,100072.28
2024-01-16T13:01:42.727Z,100064.88
2024-01-16T13:04:09.326Z,100057.44
2024-01-16T13:06:37.430Z,100065.25
2024-01-16T13:09:04.060Z,100060.25
2024-01-16T13:11:38.583Z,100051.84
2024-01-16T13:14:05.634Z,100053.72
2024-01-16T13:16:31.890Z,100046.13
2024-01-16T13:18:58.129Z,100058.88
2024-01-16T13:21:24.326Z,100052.22
2024-01-16T13:23:50.702Z,100051.41
2024-01-16T13:26:16.973Z,100059.03
2024-01-16T13:28:43.262Z,100042.81
2024-01-16T13:31:09.478Z,100029.31
2024-01-16T13:33:35.823Z,100022.59
2024-01-16T13:36:02.210Z,100032.81
2024-01-16T13:38:28.550Z,100031.00
2024-01-16T13:40:54.773Z,100028.19
2024-01-16T13:43:21.020Z,100027.91
2024-01-16T13:45:47.264Z,100012.59
2024-01-16T13:48:13.776Z,100005.28
2024-01-16T13:50:40.028Z,100015.50
2024-01-16T13:53:06.265Z,100011.38
2024-01-16T13:55:32.479Z,100014.69
2024-01-16T13:57:58.682Z,100005.09
2024-01-16T14:00:24.990Z,99999.47
2024-01-16T14:02:51.399Z,99997.91
2024-01-16T14:05:17.774Z,99997.66
2024-01-16T14:07:44.086Z,99995.94
2024-01-16T14:10:10.307Z,99992.72
2024-01-16T14:12:36.534Z,100003.41
2024-01-16T14:15:02.885Z,99994.41
2024-01-16T14:17:29.328Z,99992.25
2024-01-16T14:19:55.585Z,100000.06
2024-01-16T14:22:21.782Z,99987.84
2024-01-16T14:24:47.999Z,99989.50
2024-01-16T14:27:14.173Z,99991.00
2024-01-16T14:29:40.368Z,99985.19
2024-01-16T14:32:06.619Z,99985.53
2024-01-16T14:34:32.940Z,99990.03
2024-01-16T14:36:59.194Z,99994.25
2024-01-16T14:39:25.450Z,99982.56
2024-01-16T14:41:51.677Z,99987.16
2024-01-16T14:44:18.013Z,99990.91
2024-01-16T14:46:44.822Z,99996.59
2024-01-16T14:49:11.839Z,100001.22
2024-01-16T14:51:38.152Z,99998.69
2024-01-16T14:54:04.450Z,100009.28
2024-01-16T14:56:30.714Z,100006.69
2024-01-16T14:58:56.929Z,99994.59
2024-01-16T15:01:23.238Z,99993.06
2024-01-16T15:03:49.567Z,99992.25
2024-01-16T15:06:15.903Z,99995.75
2024-01-16T15:08:42.153Z,99989.75
2024-01-16T15:11:08.467Z,99992.25
2024-01-16T15:13:34.726Z,99994.06
2024-01-16T15:16:00.967Z,99987.09
2024-01-16T15:18:27.291Z,99993.03
2024-01-16T15:20:53.608Z,99990.56
2024-01-16T15:23:19.992Z,99987.84
2024-01-16T15:25:46.233Z,99988.91
2024-01-16T15:28:12.419Z,99991.13
2024-01-16T15:30:38.705Z,99998.47
2024-01-16T15:33:04.994Z,99997.94
2024-01-16T15:35:31.308Z,99998.78
2024-01-16T15:37:57.572Z,100004.22
2024-01-16T15:40:23.801Z,100014.00
2024-01-16T15:42:50.023Z,100016.03
2024-01-16T15:45:16.306Z,100009.53
2024-01-16T15:47:42.617Z,100016.66
2024-01-16T15:50:08.870Z,100010.03
2024-01-16T15:52:35.086Z,100015.38
2024-01-16T15:55:01.577Z,100017.22
2024-01-16T15:57:28.064Z,100015.63
2024-01-16T15:59:54.418Z,100013.19
2024-01-16T16:02:20.782Z,100013.31
2024-01-16T16:04:47.070Z,100014.22
2024-01-16T16:07:13.268Z,100015.16
2024-01-16T16:09:39.511Z,100013.53
2024-01-16T16:12:05.765Z,100016.13
2024-01-16T16:14:32.109Z,100018.69
2024-01-16T16:16:58.451Z,100012.81
2024-01-16T16:19:24.872Z,100011.16
2024-01-16T16:21:51.154Z,100018.81
2024-01-16T16:24:17.357Z,100024.81
2024-01-16T16:26:43.619Z,100024.81
2024-01-16T16:29:19.057Z,100029.94
2024-01-16T16:31:45.360Z,100025.66
2024-01-16T16:34:11.684Z,100025.69
2024-01-16T16:36:39.427Z,100026.53
2024-01-16T16:39:05.761Z,100020.59
2024-01-16T16:41:31.987Z,100024.00
2024-01-16T16:43:58.227Z,100032.56
2024-01-16T16:46:25.619Z,100030.00
2024-01-16T16:48:51.947Z,100040.22
2024-01-16T16:51:18.214Z,100041.94
2024-01-16T16:53:44.632Z,100037.66
2024-01-16T16:56:10.930Z,100038.53
2024-01-16T16:58:37.153Z,100049.56
2024-01-16T17:01:03.377Z,100049.59
2024-01-16T17:03:29.626Z,100050.41
2024-01-16T17:05:55.990Z,100036.84
2024-01-16T17:08:22.261Z,100047.00
2024-01-16T17:10:48.445Z,100062.31
2024-01-16T17:13:14.688Z,100047.00
2024-01-16T17:15:40.969Z,100052.13
2024-01-16T17:18:07.359Z,100050.44
2024-01-16T17:20:33.761Z,100042.78
2024-01-16T17:23:00.024Z,100046.16
2024-01-16T17:25:26.241Z,100048.72
2024-01-16T17:27:52.477Z,100032.56
2024-01-16T17:30:18.750Z,100029.16
2024-01-16T17:32:45.106Z,100025.75
2024-01-16T17:35:11.365Z,100017.25
2024-01-16T17:37:37.578Z,100007.06
2024-01-16T17:40:03.889Z,100005.34
2024-01-16T17:42:30.199Z,99996.84
2024-01-16T17:44:56.568Z,99989.19
2024-01-16T17:47:22.949Z,99989.19
2024-01-16T17:49:49.469Z,99985.78
2024-01-16T17:52:15.756Z,99986.63
2024-01-16T17:54:41.951Z,99996.00
2024-01-16T17:57:08.199Z,99989.19
2024-01-16T17:59:34.458Z,99988.31
2024-01-16T18:02:00.767Z,99982.38
2024-01-16T18:04:27.031Z,99979.81
2024-01-16T18:06:53.351Z,99973.00
2024-01-16T18:09:19.650Z,99967.91
2024-01-16T18:11:45.919Z,99956.03
2024-01-16T18:14:12.172Z,99945.81
2024-01-16T18:16:38.342Z,99945.81
2024-01-16T18:19:04.732Z,99945.81
2024-01-16T18:21:30.997Z,99952.63
2024-01-16T18:23:57.303Z,99956.00
2024-01-16T18:26:23.592Z,99954.31
2024-01-16T18:28:49.818Z,99958.53
2024-01-16T18:31:18.214Z,99960.22
2024-01-16T18:33:46.190Z,99952.59
2024-01-16T18:36:12.516Z,99947.50
2024-01-16T18:38:38.753Z,99956.84
2024-01-16T18:41:04.964Z,99944.94
2024-01-16T18:43:31.177Z,99946.63
2024-01-16T18:45:57.352Z,99939.00
2024-01-16T18:48:23.827Z,99939.84
2024-01-16T18:50:50.174Z,99944.91
2024-01-16T18:53:16.423Z,99943.22
2024-01-16T18:55:42.607Z,99936.41
2024-01-16T18:58:11.408Z,99934.72
2024-01-16T19:00:39.165Z,99938.09
2024-01-16T19:03:05.395Z,99930.44
2024-01-16T19:05:31.746Z,99922.81
2024-01-16T19:07:58.004Z,99923.66
2024-01-16T19:10:24.232Z,99916.00
2024-01-16T19:12:50.437Z,99911.75
2024-01-16T19:15:16.661Z,99903.25
2024-01-16T19:17:43.033Z,99901.56
2024-01-16T19:20:09.259Z,99906.66
2024-01-16T19:22:35.500Z,99905.78
2024-01-16T19:25:01.779Z,99900.69
2024-01-16T19:27:28.023Z,99901.56
2024-01-16T19:29:54.298Z,99889.66
2024-01-16T19:32:20.602Z,99881.16
2024-01-16T19:34:46.874Z,99877.78
2024-01-16T19:37:13.102Z,99880.34
2024-01-16T19:39:41.999Z,99868.44
2024-01-16T19:42:08.456Z,99872.66
2024-01-16T19:44:34.754Z,99865.00
2024-01-16T19:47:00.959Z,99856.53
2024-01-16T19:49:27.196Z,99859.88
2024-01-16T19:51:53.453Z,99860.75
2024-01-16T19:54:19.757Z,99849.69
2024-01-16T19:56:46.025Z,99855.66
2024-01-16T19:59:12.306Z,99854.78
2024-01-16T20:01:38.528Z,99848.03
2024-01-16T20:04:04.896Z,99851.44
2024-01-16T20:06:31.205Z,99855.66
2024-01-16T20:08:57.630Z,99853.09
2024-01-16T20:11:23.959Z,99844.59
2024-01-16T20:13:50.316Z,99836.09
2024-01-16T20:16:16.639Z,99832.69
2024-01-16T20:18:43.012Z,99825.94
2024-01-16T20:21:12.171Z,99826.75
2024-01-16T20:23:38.501Z,99830.16
2024-01-16T20:26:04.788Z,99825.00
2024-01-16T20:28:30.969Z,99825.00
2024-01-16T20:30:57.279Z,99821.59
2024-01-16T20:33:23.666Z,99820.78
2024-01-16T20:35:49.972Z,99821.59
2024-01-16T20:38:16.181Z,99831.78
2024-01-16T20:40:42.391Z,99829.22
2024-01-16T20:43:08.595Z,99830.09
2024-01-16T20:45:34.826Z,99836.00
2024-01-16T20:48:01.177Z,99835.13
2024-01-16T20:50:27.449Z,99834.31
2024-01-16T20:52:53.668Z,99822.41
2024-01-16T20:55:19.914Z,99817.31
2024-01-16T20:57:46.101Z,99813.03
2024-01-16T21:00:14.260Z,99812.19
2024-01-16T21:02:41.336Z,99803.72
2024-01-16T21:05:07.728Z,99795.22
2024-01-16T21:07:34.188Z,99786.72
2024-01-16T21:10:00.514Z,99782.47
2024-01-16T21:12:26.785Z,99782.47
2024-01-16T21:14:53.057Z,99772.28
2024-01-16T21:17:19.383Z,99768.06
2024-01-16T21:19:45.737Z,99757.88
2024-01-16T21:22:12.374Z,99762.09
2024-01-16T21:24:39.309Z,99754.47
2024-01-16T21:27:05.575Z,99751.06
2024-01-16T21:29:32.031Z,99757.81
2024-01-16T21:31:58.249Z,99760.34
2024-01-16T21:34:24.667Z,99747.66
2024-01-16T21:36:51.172Z,99766.25
2024-01-16T21:39:17.403Z,99764.56
2024-01-16T21:41:43.621Z,99752.69
2024-01-16T21:44:09.944Z,99755.19
2024-01-16T21:46:36.294Z,99751.78
2024-01-16T21:49:02.634Z,99751.78
2024-01-16T21:51:28.954Z,99743.28
2024-01-16T21:53:55.261Z,99734.81
2024-01-16T21:56:21.514Z,99732.28
2024-01-16T21:58:47.763Z,99728.88
2024-01-16T22:01:13.961Z,99730.59
2024-01-16T22:03:40.220Z,99730.59
2024-01-16T22:06:06.508Z,99722.97
2024-01-16T22:08:33.277Z,99712.81
2024-01-16T22:10:59.585Z,99714.50
2024-01-16T22:13:25.783Z,99704.34
2024-01-16T22:15:52.059Z,99712.00
2024-01-16T22:18:18.381Z,99706.91
2024-01-16T22:20:44.710Z,99703.50
2024-01-16T22:23:10.935Z,99698.44
2024-01-16T22:25:37.161Z,99689.13
2024-01-16T22:28:03.376Z,99682.34
2024-01-16T22:30:29.707Z,99682.38
2024-01-16T22:32:56.101Z,99679.81
2024-01-16T22:35:22.434Z,99679.84
2024-01-16T22:37:48.716Z,99670.53
2024-01-16T22:40:14.941Z,99663.75
2024-01-16T22:42:41.191Z,99655.25
2024-01-16T22:45:07.481Z,99656.13
2024-01-16T22:47:33.771Z,99656.13
2024-01-16T22:49:59.972Z,99645.94
2024-01-16T22:52:26.206Z,99646.81
2024-01-16T22:54:52.419Z,99634.94
2024-01-16T22:57:18.636Z,99626.47
2024-01-16T22:59:44.914Z,99630.69
2024-01-16T23:02:11.166Z,99621.38
2024-01-16T23:04:37.419Z,99614.59
2024-01-16T23:07:03.705Z,99612.88
2024-01-16T23:09:29.962Z,99612.88
2024-01-16T23:11:56.203Z,99613.72
2024-01-16T23:14:22.495Z,99608.66
2024-01-16T23:16:48.805Z,99611.19
2024-01-16T23:19:15.151Z,99605.25
2024-01-16T23:21:41.418Z,99601.03
2024-01-16T23:24:07.697Z,99602.72
2024-01-16T23:26:34.019Z,99607.78
2024-01-16T23:29:00.238Z,99596.75
2024-01-16T23:31:26.450Z,99595.09
2024-01-16T23:33:52.766Z,99609.47
2024-01-16T23:36:19.100Z,99612.81
2024-01-16T23:38:45.305Z,99600.13
2024-01-16T23:41:11.538Z,99594.19
2024-01-16T23:43:37.764Z,99594.16
2024-01-16T23:46:04.007Z,99587.41
2024-01-16T23:48:30.329Z,99575.53
2024-01-16T23:50:56.678Z,99561.97
2024-01-16T23:53:23.013Z,99555.22
2024-01-16T23:55:49.266Z,99538.31
2024-01-16T23:58:15.445Z,99536.63
